Date,TemperatureHighF,TemperatureAvgF,TemperatureLowF,DewpointHighF,DewpointAvgF,DewpointLowF,HumidityHigh,HumidityAvg,HumidityLow,PressureMaxIn,PressureMinIn,WindSpeedMaxMPH,WindSpeedAvgMPH,GustSpeedMaxMPH,PrecipitationSumIn
2013-1-1,35.0,29.0,19.0,26.9,14.1,6.4,78,54,43,29.89,29.68,17,2,21,0.04
2013-1-2,27.0,15.1,5.0,16.3,4.7,-5.9,92,63,52,30.10,29.87,13,1,14,0.01
2013-1-3,22.0,10.2,1.0,5.9,-1.3,-7.0,85,61,33,30.11,29.96,2,0,2,0.00
2013-1-4,37.0,24.0,7.0,24.6,17.0,4.0,93,76,55,29.96,29.78,3,0,3,0.00
2013-1-5,49.6,28.1,17.0,32.3,18.4,14.8,93,69,41,30.25,29.80,19,0,19,0.01
2013-1-6,42.0,33.2,17.0,29.2,26.1,15.3,94,76,56,30.21,29.93,8,0,10,0.07
2013-1-7,38.0,28.0,15.0,30.7,21.7,13.3,95,78,44,30.38,29.93,11,1,14,0.01
2013-1-8,46.0,32.4,15.0,31.0,24.5,13.3,94,75,46,30.35,30.26,12,0,15,0.03
2013-1-9,42.0,33.5,17.0,34.7,26.7,15.3,95,77,56,30.39,29.97,7,0,9,0.01
2013-1-10,46.0,40.1,26.0,30.3,25.2,22.3,90,56,45,30.53,30.00,19,2,19,0.00
2013-1-11,39.0,34.2,21.0,33.7,30.0,19.3,95,85,65,30.51,30.24,2,0,2,0.12
2013-1-12,41.0,39.4,36.0,40.0,38.4,34.7,96,96,95,30.23,30.14,2,0,2,0.06
2013-1-13,57.6,49.2,39.0,49.2,42.7,35.6,97,82,45,30.16,29.91,4,0,5,0.01
2013-1-14,62.0,48.3,39.0,52.4,39.4,27.1,97,73,44,30.26,29.86,9,1,10,0.00
2013-1-15,42.0,33.4,27.0,28.6,25.1,22.7,94,72,52,30.33,30.23,2,0,4,0.00
2013-1-16,32.0,30.6,28.0,30.7,29.1,24.6,95,94,80,30.24,29.80,4,0,4,0.00
2013-1-17,42.0,32.3,24.0,38.1,26.2,8.0,96,79,44,30.10,29.80,12,1,15,0.28
2013-1-18,26.0,16.1,11.0,10.4,-1.2,-8.7,82,48,31,30.42,30.04,16,1,17,0.00
2013-1-19,46.0,37.5,17.0,30.8,22.6,6.1,83,56,41,30.35,29.89,19,1,19,0.18
2013-1-20,53.0,44.4,28.0,33.1,28.1,11.3,80,54,30,29.86,29.55,17,3,24,0.01
2013-1-21,26.0,22.4,17.0,20.3,9.6,-0.7,93,61,38,30.07,29.80,4,0,4,0.00
2013-1-22,24.0,18.0,9.0,18.3,7.7,-2.4,93,67,37,30.05,29.74,17,1,18,0.00
2013-1-23,13.0,7.2,1.0,-1.3,-11.1,-15.9,68,43,29,30.11,30.03,17,1,17,0.00
2013-1-24,16.0,8.9,-3.0,-8.3,-11.5,-15.9,60,39,30,30.14,30.01,18,2,20,0.00
2013-1-25,21.0,16.3,5.0,2.4,-4.8,-8.6,61,39,27,30.24,30.02,16,1,17,0.00
2013-1-26,22.0,15.0,8.0,11.4,2.3,-8.6,92,61,30,30.17,29.96,17,1,19,0.00
2013-1-27,28.0,21.4,11.0,3.3,-1.8,-6.4,66,37,25,30.41,30.16,18,2,21,0.00
2013-1-28,28.0,21.5,12.0,21.3,13.2,-3.7,93,74,30,30.40,29.99,2,0,4,0.00
2013-1-29,35.0,26.0,22.0,30.7,24.1,20.3,95,93,82,30.16,29.99,0,0,0,0.01
2013-1-30,59.0,46.9,31.0,58.2,45.7,29.7,98,96,93,30.13,29.49,11,1,12,0.47
2013-1-31,60.0,44.2,29.0,59.4,33.0,13.1,98,67,39,29.52,28.96,18,2,18,0.31
2013-2-1,29.0,27.0,25.0,14.9,13.1,11.3,61,55,51,29.62,29.53,6,2,16,0.00
2013-2-2,30.0,25.3,15.0,11.2,6.6,1.6,64,45,34,30.19,30.00,9,0,10,0.00
2013-2-3,27.0,23.9,16.0,22.2,19.0,11.9,93,82,57,30.01,29.68,7,0,8,0.00
2013-2-4,23.0,20.2,17.0,18.6,9.3,2.5,93,65,45,29.87,29.67,7,0,9,0.00
2013-2-5,32.0,20.4,12.0,16.7,9.2,3.2,85,63,38,29.99,29.87,2,0,7,0.00
2013-2-6,39.0,26.8,19.0,26.5,18.2,5.7,94,72,38,30.26,29.88,6,0,11,0.02
2013-2-7,28.0,19.5,11.0,4.3,-0.6,-7.7,67,42,21,30.50,30.25,6,0,9,0.00
2013-2-8,22.0,17.0,15.0,16.6,14.7,3.4,93,91,44,30.46,29.66,24,2,24,0.00
2013-2-9,20.0,16.8,13.0,18.3,13.4,6.0,93,86,73,30.13,29.58,22,3,25,0.00
2013-2-10,41.0,26.9,8.0,12.4,5.5,1.2,88,44,22,30.34,30.14,9,1,12,0.10
2013-2-11,32.0,17.1,8.0,30.7,14.6,4.9,95,90,83,30.31,29.57,0,0,6,0.00
2013-2-12,45.0,36.6,31.0,31.9,30.3,27.5,95,79,52,29.83,29.54,4,0,9,0.44
2013-2-13,45.0,30.7,23.0,29.5,24.3,21.3,94,79,43,29.82,29.68,2,0,7,0.04
2013-2-14,46.0,36.1,24.0,25.1,22.3,19.1,94,60,38,29.95,29.66,11,1,11,0.01
2013-2-15,53.0,34.5,19.0,33.4,27.1,17.3,95,77,46,29.96,29.89,3,1,3,0.00
2013-2-16,41.0,34.7,25.0,34.1,25.4,17.0,95,70,52,29.92,29.70,7,0,9,0.02
2013-2-17,30.0,19.5,15.0,18.9,8.1,1.6,93,62,44,29.70,29.31,29,4,32,0.02
2013-2-18,22.0,15.9,13.0,2.9,1.4,-2.7,60,53,33,30.08,29.60,13,3,24,0.00
2013-2-19,46.0,33.4,19.0,40.9,21.2,2.6,96,63,38,30.11,29.55,3,0,7,0.31
2013-2-20,39.0,31.1,25.0,38.0,21.5,13.9,96,69,47,29.71,29.49,13,1,13,0.01
2013-2-21,30.0,24.0,22.0,15.6,13.3,9.4,74,64,47,30.10,29.70,11,1,13,0.00
2013-2-22,42.0,33.1,18.0,26.2,21.4,15.8,93,64,38,30.36,30.15,9,0,10,0.00
2013-2-23,38.0,34.2,28.0,32.9,30.5,25.2,95,86,73,30.31,29.92,6,0,6,0.00
2013-2-24,36.0,32.3,30.0,34.7,31.0,28.5,95,95,94,29.92,29.69,9,0,9,0.29
2013-2-25,42.0,32.4,27.0,34.2,29.8,25.5,95,90,64,30.20,29.86,0,0,2,0.34
2013-2-26,42.0,32.6,26.0,39.0,29.2,24.5,96,88,63,30.33,30.15,1,0,1,0.04
2013-2-27,41.0,36.5,32.0,40.0,35.1,30.7,96,94,81,30.16,29.55,12,1,13,1.27
2013-2-28,51.0,38.7,33.0,37.6,34.8,31.7,96,87,54,29.61,29.51,2,0,11,0.01
2013-3-1,41.0,35.7,33.0,34.4,31.3,28.9,95,84,71,29.65,29.51,2,0,4,0.00
2013-3-2,45.0,36.3,30.0,30.5,27.9,26.3,88,72,54,29.65,29.60,6,0,7,0.00
2013-3-3,40.0,35.9,29.0,35.2,30.9,25.6,95,82,70,29.62,29.54,8,0,17,0.06
2013-3-4,38.0,32.6,29.0,28.4,24.3,22.4,83,72,57,29.70,29.55,15,2,19,0.00
2013-3-5,45.0,34.5,28.0,34.7,27.7,21.7,95,77,54,30.05,29.70,7,1,12,0.02
2013-3-6,38.0,35.1,32.0,35.7,32.7,28.5,95,91,71,30.13,30.04,6,1,12,0.13
2013-3-7,33.0,31.1,30.0,31.7,29.4,27.4,95,94,86,30.10,29.98,13,2,14,0.09
2013-3-8,42.0,32.3,28.0,32.9,26.3,21.4,95,81,46,30.15,29.93,14,2,16,0.07
2013-3-9,49.0,36.3,23.0,30.1,25.4,18.1,94,68,36,30.33,30.14,9,1,10,0.24
2013-3-10,46.0,36.3,18.0,34.3,29.5,16.3,95,77,55,30.41,30.27,6,1,7,0.00
2013-3-11,44.0,34.9,30.0,41.4,33.5,28.5,96,95,88,30.30,30.13,3,0,4,0.00
2013-3-12,53.0,46.8,40.0,50.2,45.6,39.0,97,96,90,30.13,29.74,7,0,9,0.27
2013-3-13,53.0,40.8,26.0,50.2,30.4,22.1,97,69,37,29.75,29.71,3,1,5,0.00
2013-3-14,37.0,28.7,20.0,24.5,16.9,4.4,94,63,43,29.79,29.66,17,1,21,0.00
2013-3-15,42.0,28.3,17.0,29.7,15.3,2.8,87,61,25,29.82,29.59,9,1,19,0.00
2013-3-16,39.0,32.6,25.0,26.5,13.9,8.3,83,47,30,29.85,29.65,9,1,14,0.00
2013-3-17,37.0,29.9,16.0,18.3,9.3,0.5,93,44,25,30.30,29.85,18,2,18,0.00
2013-3-18,34.0,27.1,12.0,25.1,15.3,0.3,85,61,35,30.38,30.02,3,0,7,0.00
2013-3-19,33.0,30.4,24.0,31.7,29.0,22.3,95,95,90,30.18,29.61,7,1,9,0.01
2013-3-20,38.0,28.6,22.0,28.1,23.2,20.3,94,81,54,29.76,29.65,6,0,7,0.22
2013-3-21,43.0,28.0,16.0,27.5,22.3,13.7,94,82,30,29.76,29.58,1,0,5,0.28
2013-3-22,43.0,35.8,23.0,25.0,20.4,15.0,94,55,34,29.68,29.56,9,1,12,0.15
2013-3-23,44.0,37.1,25.0,23.7,20.7,17.6,81,52,37,29.73,29.60,19,2,21,0.05
2013-3-24,50.0,42.1,26.0,29.0,24.4,22.1,94,51,36,29.80,29.70,14,2,14,0.00
2013-3-25,43.0,34.1,24.0,33.9,29.7,22.3,94,84,70,29.74,29.54,5,0,8,0.00
2013-3-26,46.0,36.6,31.0,27.9,23.1,17.9,87,60,34,29.75,29.54,3,0,7,0.00
2013-3-27,54.0,40.3,25.0,36.4,26.5,22.0,95,62,32,29.86,29.72,4,1,5,0.00
2013-3-28,48.0,40.9,34.0,37.7,32.5,28.3,96,73,48,30.00,29.86,2,0,2,0.03
2013-3-29,59.0,43.2,31.0,36.7,32.6,29.7,95,68,35,30.04,29.98,6,0,6,0.00
2013-3-30,59.0,46.1,30.0,34.0,23.5,15.9,89,44,20,30.08,30.01,12,1,12,0.00
2013-3-31,62.0,50.4,22.0,41.9,25.4,20.3,96,43,22,30.11,29.75,10,1,12,0.09
2013-4-1,61.0,44.1,33.0,45.7,32.0,10.1,97,66,31,29.76,29.53,16,1,19,0.30
2013-4-2,41.0,32.2,26.0,15.9,12.5,9.2,60,44,29,29.88,29.76,11,1,12,0.00
2013-4-3,30.0,28.5,27.0,15.9,13.5,10.9,60,53,48,29.92,29.87,5,1,11,0.00
2013-4-4,56.0,37.7,26.0,16.9,14.2,10.5,65,42,18,30.26,30.12,3,1,5,0.00
2013-4-5,62.0,51.7,42.0,27.5,23.8,19.9,54,35,23,29.83,29.68,17,2,17,0.00
2013-4-6,47.0,36.8,24.0,21.4,7.4,2.7,58,31,17,30.31,29.88,17,2,19,0.00
2013-4-7,58.0,46.1,21.0,40.8,26.0,13.7,93,49,28,30.29,29.97,16,2,16,0.00
2013-4-8,66.0,49.6,39.0,45.7,37.7,29.2,97,68,25,30.11,29.93,3,0,5,0.00
2013-4-9,68.0,52.6,44.0,50.1,43.5,38.2,97,74,39,30.08,29.89,5,1,6,0.06
2013-4-10,60.0,50.0,44.0,50.7,46.5,42.0,97,89,65,30.01,29.89,2,0,2,0.54
2013-4-11,51.0,43.6,39.0,47.2,37.9,27.5,97,81,48,30.16,29.85,4,0,5,0.09
2013-4-12,41.0,36.4,34.0,35.7,33.8,25.6,95,91,54,30.18,29.81,7,1,9,0.43
2013-4-13,55.0,44.9,34.0,41.2,38.1,32.7,96,79,50,29.94,29.76,8,0,11,0.10
2013-4-14,54.0,46.1,37.0,40.4,33.5,27.5,96,65,38,30.21,29.90,16,1,16,0.00
2013-4-15,51.0,40.9,28.0,37.6,33.8,26.5,96,77,54,30.39,30.20,4,0,4,0.00
2013-4-16,68.0,51.5,34.0,52.5,42.1,32.7,97,73,42,30.39,30.06,14,2,17,0.00
2013-4-17,67.0,55.7,37.0,53.2,34.5,26.6,84,48,25,30.37,30.06,8,1,14,0.00
2013-4-18,63.0,50.6,30.0,41.8,32.6,27.6,96,54,31,30.47,30.18,7,1,12,0.00
2013-4-19,76.0,65.3,52.0,62.7,58.5,42.9,98,80,50,30.15,29.76,14,2,15,0.00
2013-4-20,68.0,54.5,46.0,64.4,38.6,30.8,98,58,38,29.95,29.65,19,2,19,0.37
2013-4-21,55.0,42.5,32.0,30.5,21.1,18.1,74,43,30,30.65,30.25,12,2,14,0.00
2013-4-22,50.0,40.0,26.0,35.3,30.9,21.0,94,72,34,30.81,30.59,6,1,7,0.00
2013-4-23,41.0,38.8,31.0,40.0,37.4,29.2,96,95,88,30.59,30.11,9,1,9,0.05
2013-4-24,76.0,54.9,41.0,51.3,45.9,40.0,97,75,35,30.10,29.83,6,1,11,0.01
2013-4-25,66.0,54.7,45.0,53.2,34.8,24.6,97,51,23,30.26,29.85,8,1,12,0.03
2013-4-26,58.0,44.7,31.0,40.8,36.7,29.3,96,77,35,30.47,30.29,3,0,3,0.00
2013-4-27,69.0,55.8,31.0,48.2,35.3,29.7,97,49,29,30.46,30.34,10,1,10,0.00
2013-4-28,68.0,59.9,33.0,46.6,36.8,31.7,97,45,27,30.40,30.27,11,1,12,0.00
2013-4-29,72.0,56.5,40.0,47.0,35.7,29.6,90,49,28,30.31,30.25,4,0,5,0.00
2013-4-30,71.0,53.5,39.0,38.2,30.0,21.5,88,46,22,30.40,30.27,3,0,3,0.00
2013-5-1,70.0,50.9,33.0,40.5,33.3,29.2,96,59,25,30.54,30.39,3,0,3,0.00
2013-5-2,78.0,49.8,37.0,46.4,39.1,35.7,96,73,23,30.53,30.42,5,0,5,0.00
2013-5-3,60.0,50.2,38.0,43.8,40.6,37.0,96,72,52,30.59,30.47,4,1,4,0.00
2013-5-4,53.0,41.5,34.0,46.6,38.8,32.7,97,90,73,30.43,30.35,4,0,4,0.00
2013-7-2,77.0,62.4,61.0,77.0,61.8,60.4,100,98,98,30.28,30.26,3,0,4,0.03
2013-7-3,90.0,82.1,65.0,73.8,71.1,64.4,99,70,54,30.31,30.24,8,0,8,0.03
2013-7-4,94.0,89.5,82.0,74.7,72.1,68.8,75,57,46,30.32,30.24,8,0,8,0.03
2013-7-5,82.0,81.0,80.0,74.0,73.8,72.9,82,79,76,30.28,30.27,4,0,4,0.00
2013-7-13,67.0,66.3,66.0,66.1,65.8,65.1,99,98,97,30.28,30.27,0,0,0,0.00
2013-7-14,90.0,84.9,72.0,74.2,71.2,65.6,99,65,46,30.29,30.21,9,0,9,0.00
2013-7-15,94.0,85.4,67.0,74.0,71.9,66.7,99,67,44,30.16,30.10,2,0,2,0.00
2013-7-16,87.0,77.2,66.0,69.5,67.8,65.7,99,74,56,30.15,30.09,2,0,2,0.00
2013-7-17,90.0,78.0,66.0,74.0,70.9,65.7,99,80,54,30.14,29.96,2,0,2,0.00
2013-7-18,80.0,76.4,72.0,74.2,73.1,67.7,99,90,73,30.02,29.95,2,0,2,0.00
2013-7-19,89.0,84.9,82.0,76.6,74.6,71.9,81,72,58,29.75,29.74,6,0,6,0.00
2013-7-20,92.0,82.6,70.0,78.7,70.4,66.2,94,68,48,29.78,29.67,9,0,9,0.10
2013-7-21,82.0,75.7,67.0,67.3,63.7,58.6,98,68,51,29.99,29.94,4,0,4,0.00
2013-7-22,75.0,70.2,67.0,66.7,65.5,63.8,99,86,71,29.99,29.92,3,0,3,0.00
2013-7-23,76.0,72.3,67.0,73.4,70.7,65.7,99,95,86,29.75,29.56,2,0,2,1.74
2013-7-24,78.0,73.3,69.0,68.7,63.4,57.2,99,72,61,29.88,29.58,6,0,6,0.00
2013-7-25,59.0,58.4,58.0,58.4,56.7,51.5,98,94,79,30.08,29.99,2,0,2,0.47
2013-7-26,72.0,66.8,61.0,67.1,64.7,60.4,99,93,79,29.98,29.92,12,0,12,0.15
2013-7-27,86.0,78.2,62.0,68.2,61.8,57.3,99,59,43,30.05,30.00,9,0,9,0.01
2013-7-28,76.0,70.5,65.0,69.2,67.4,64.4,99,90,79,30.01,29.98,4,0,4,0.00
2013-7-29,79.0,73.3,65.0,70.0,68.2,64.4,98,85,71,30.01,29.97,2,0,2,0.00
2013-7-30,83.0,72.2,58.0,62.9,59.2,53.9,98,68,38,30.07,30.01,2,0,3,0.00
2013-7-31,65.0,58.4,56.0,61.0,57.0,55.2,97,95,87,30.07,30.04,0,0,0,0.00
2013-8-1,68.0,65.7,57.0,65.3,62.8,55.2,97,91,86,29.98,29.89,1,0,2,0.00
2013-8-2,65.0,63.4,63.0,63.1,62.1,61.0,98,96,90,29.84,29.79,2,0,2,0.50
2013-8-3,83.0,72.5,59.0,66.2,60.9,54.4,99,70,40,29.81,29.78,9,0,9,0.00
2013-8-4,81.0,72.5,59.0,63.5,56.9,52.8,98,60,41,29.84,29.78,8,1,8,0.00
2013-8-5,77.0,63.4,54.0,53.4,45.3,37.7,97,57,26,29.99,29.88,6,0,6,0.00
2013-8-6,75.0,60.0,45.0,54.6,52.1,44.2,97,78,41,30.13,30.01,4,0,4,0.00
2013-8-7,78.0,60.4,50.0,59.0,54.1,49.2,97,82,48,30.13,30.09,4,0,4,0.00
2013-8-8,76.0,73.7,61.0,70.6,69.3,60.4,98,86,78,30.03,30.00,4,0,4,0.05
2013-8-9,74.0,71.4,70.0,73.7,71.1,69.7,99,99,97,29.97,29.72,5,0,5,1.65
2013-8-10,83.0,71.7,57.0,70.7,60.4,47.5,99,73,30,29.98,29.76,14,0,14,0.00
2013-8-11,84.0,76.0,55.0,64.4,53.9,49.5,98,49,33,30.07,30.00,8,0,8,0.00
2013-8-12,55.0,55.0,55.0,54.2,54.2,54.2,97,97,97,29.96,29.95,0,0,0,0.00
2013-8-13,74.0,68.3,62.0,67.2,65.0,61.4,99,90,76,29.84,29.68,0,0,0,0.02
2013-8-14,70.0,65.8,60.0,60.4,52.8,50.3,98,64,52,29.85,29.67,12,1,12,0.00
2013-8-15,70.0,60.8,49.0,58.0,55.0,47.2,97,82,59,30.04,29.96,0,0,0,0.00
2013-8-17,81.0,68.4,58.0,68.7,59.6,57.1,99,76,46,30.27,30.23,3,0,3,0.00
2013-8-18,83.0,74.4,60.0,68.7,62.5,56.7,99,68,41,30.26,30.09,5,0,5,0.00
2013-8-19,81.0,69.7,56.0,64.3,62.0,55.2,97,78,54,29.99,29.95,2,0,2,0.00
2013-8-20,82.0,72.6,59.0,68.2,66.9,58.4,98,83,60,30.06,29.98,0,0,0,0.00
2013-8-21,74.0,70.6,58.0,67.6,66.3,57.4,98,87,80,30.08,30.02,0,0,0,0.00
2013-8-23,84.0,75.5,62.0,62.6,56.4,50.7,81,54,33,30.05,29.91,7,0,7,0.00
2013-8-24,83.0,73.7,52.0,55.1,47.3,41.5,97,42,28,30.31,30.23,7,0,7,0.00
2013-8-25,86.0,75.2,50.0,68.1,54.1,48.3,99,52,29,30.35,30.16,7,0,7,0.00
2013-8-26,64.0,64.0,64.0,58.4,58.2,57.7,82,81,80,30.08,30.07,2,0,2,0.00
2013-8-28,74.0,69.4,66.0,65.5,64.6,63.5,96,85,70,29.93,29.89,2,0,2,0.00
2013-8-29,65.0,62.5,61.0,64.4,60.3,59.0,98,92,85,30.05,30.00,0,0,1,0.01
2013-8-30,87.0,75.5,61.0,68.2,65.1,60.4,98,73,47,30.00,29.80,7,0,7,0.00
2013-8-31,82.0,75.1,69.0,74.5,72.3,67.2,99,91,76,29.82,29.78,4,0,4,0.07
2013-9-1,88.0,78.7,71.0,73.7,71.2,69.1,99,79,56,29.89,29.84,6,0,6,0.10
2013-9-2,73.0,72.0,71.0,72.7,71.7,70.7,99,99,99,29.83,29.71,2,0,2,1.14
2013-9-3,72.0,69.3,66.0,69.7,66.1,63.6,99,90,81,29.76,29.69,2,0,2,0.00
2013-9-4,73.0,67.1,63.0,60.7,59.4,57.4,89,77,59,29.87,29.86,1,0,1,0.00
2013-9-5,61.0,60.4,60.0,60.4,59.8,59.4,98,98,98,29.84,29.84,0,0,0,0.00
2013-9-6,74.0,61.1,41.0,50.6,44.2,36.8,97,60,30,30.21,30.02,7,0,7,0.01
2013-9-7,82.0,68.7,47.0,61.0,54.7,45.2,97,65,34,30.00,29.82,9,0,9,0.00
2013-9-8,71.0,62.9,55.0,60.7,50.9,40.4,84,65,49,29.98,29.71,11,0,11,0.00
2013-9-9,72.0,59.6,38.0,52.9,45.6,37.0,97,64,34,30.20,30.09,8,0,8,0.00
2013-9-10,76.0,68.6,61.0,70.2,66.3,58.0,99,93,82,30.08,30.00,9,0,9,0.06
2013-9-11,69.0,69.0,69.0,68.7,68.7,68.7,99,99,99,30.01,30.01,0,0,0,0.00
2013-9-20,66.0,57.2,52.0,60.4,55.9,51.2,98,95,81,30.00,29.96,0,0,0,2.33
2013-9-21,71.0,68.2,66.0,64.6,62.0,57.8,95,81,63,29.78,29.74,9,0,9,0.00
2013-9-22,72.0,65.4,56.0,64.4,55.6,48.6,98,73,46,29.72,29.62,12,1,12,0.70
2013-9-23,49.0,47.8,47.0,43.1,42.2,41.2,85,81,78,29.93,29.78,6,0,6,0.00
2013-9-24,57.0,49.1,36.0,48.6,44.6,34.7,95,85,69,29.85,29.83,0,0,0,0.00
2013-9-25,54.0,53.6,53.0,53.2,52.8,52.2,97,97,97,29.94,29.91,0,0,0,0.00
2013-9-26,56.0,52.6,50.0,53.4,50.7,48.3,97,93,84,30.05,29.94,2,0,2,0.00
2013-9-27,54.0,54.0,54.0,52.3,52.3,52.3,94,94,94,30.10,30.10,0,0,0,0.00
2013-9-28,66.0,55.2,48.0,59.1,51.6,47.2,97,88,60,30.31,30.21,2,0,2,0.00
2013-9-29,72.0,58.2,44.0,55.6,49.0,42.9,97,75,41,30.19,30.06,4,0,4,0.00
2013-9-30,48.0,48.0,48.0,47.2,47.2,47.2,97,97,97,30.04,30.03,1,0,1,0.00
2013-10-1,67.0,56.9,52.0,59.7,55.4,51.2,98,95,77,29.84,29.82,0,0,0,0.00
2013-10-3,49.0,48.5,48.0,48.2,47.7,47.2,97,97,97,29.95,29.95,0,0,0,0.00
2013-10-4,63.0,61.3,57.0,62.1,59.1,55.1,98,93,79,30.06,30.01,2,0,2,0.07
2013-10-5,67.0,61.4,57.0,57.7,56.3,55.1,97,84,70,30.09,30.05,1,0,2,0.01
2013-10-6,55.0,53.3,51.0,54.2,52.2,49.5,97,96,89,30.20,30.14,2,0,2,0.20
2013-10-7,74.0,69.9,58.0,67.5,65.0,57.4,98,85,78,30.02,29.78,15,1,15,0.07
2013-10-8,51.0,47.3,45.0,46.2,45.0,44.2,97,92,78,30.27,30.24,2,0,2,0.06
2013-10-9,49.0,37.7,36.0,46.8,36.3,34.7,95,95,92,30.35,30.34,0,0,0,0.00
2013-10-12,51.0,49.9,49.0,50.2,49.1,47.2,97,97,97,30.35,30.34,0,0,0,0.00
2013-10-13,63.0,53.6,42.0,53.6,47.1,40.9,97,81,52,30.41,30.33,4,0,4,0.01
2013-10-14,31.0,31.0,31.0,29.7,29.7,29.7,95,95,95,30.27,30.27,0,0,0,0.00
2013-10-18,68.0,60.6,49.0,57.4,48.4,39.1,98,66,48,29.84,29.62,14,0,14,0.09
2013-10-19,69.0,58.4,36.0,48.2,44.3,34.7,97,62,39,29.90,29.71,6,0,6,0.00
2013-10-20,64.0,55.7,43.0,46.2,37.7,33.8,97,53,35,29.89,29.68,17,1,17,0.01
2013-10-21,33.0,32.1,32.0,31.7,30.8,30.7,95,95,95,29.97,29.96,0,0,0,0.00
2013-10-23,32.0,32.0,32.0,30.7,30.7,30.7,95,95,95,29.67,29.67,0,0,3,0.00
2013-10-24,46.0,43.6,40.0,30.5,28.7,27.5,68,56,49,29.74,29.72,3,0,3,0.00
2013-10-25,29.0,29.0,29.0,27.5,27.5,27.5,94,94,94,29.83,29.83,0,0,0,0.00
2013-10-27,51.0,49.5,42.0,40.6,37.6,35.8,92,64,58,29.78,29.76,11,2,11,0.02
2014-1-1,25.0,24.3,24.0,8.1,6.7,5.8,48,46,45,30.18,30.17,5,1,5,0.00
2014-1-2,1.0,-0.4,-2.0,-2.0,-2.9,-4.0,91,90,89,29.93,29.86,14,2,14,0.00